Time;durP1;ratioP1;P1;durP2;ratioP2;P2;SDS_P1;SDS_P2;PMS_P1;PMS_P2;Temp;Humidity;BMP_temperature;BMP_pressure;BME280_temperature;BME280_humidity;BME280_pressure;Samples;Min_cycle;Max_cycle;Signal;HPM_P1;HPM_P2
2022/09/26 00:02:11;;;;;;;5.97;5.47;;;13.90;99.90;;;;;;5016726;28;20248;-65
2022/09/26 00:04:37;;;;;;;5.30;4.90;;;13.90;99.90;;;;;;5034019;28;20184;-66
2022/09/26 00:07:03;;;;;;;5.40;5.00;;;13.80;99.90;;;;;;5033145;28;20891;-66
2022/09/26 00:09:28;;;;;;;6.33;5.83;;;13.80;99.90;;;;;;5015243;28;20482;-66
2022/09/26 00:11:54;;;;;;;6.37;5.87;;;13.80;99.90;;;;;;5016171;28;20197;-66
2022/09/26 00:14:24;;;;;;;5.67;5.27;;;13.80;99.90;;;;;;5032195;28;20268;-66
2022/09/26 00:16:50;;;;;;;6.10;5.60;;;13.80;99.90;;;;;;5032589;28;20592;-66
2022/09/26 00:19:16;;;;;;;5.47;5.07;;;13.80;99.90;;;;;;5033432;28;20419;-66
2022/09/26 00:21:42;;;;;;;6.57;6.00;;;13.80;99.90;;;;;;5033023;28;20431;-65
2022/09/26 00:24:08;;;;;;;5.73;5.20;;;13.80;99.90;;;;;;5033118;28;20845;-65
2022/09/26 00:26:35;;;;;;;5.73;4.93;;;13.90;99.90;;;;;;5033175;28;20195;-65
2022/09/26 00:29:06;;;;;;;5.93;5.43;;;13.90;99.90;;;;;;5033072;28;20467;-66
2022/09/26 00:31:52;;;;;;;5.97;5.57;;;13.90;99.90;;;;;;4974871;28;20446;-65
2022/09/26 00:34:18;;;;;;;6.37;5.47;;;13.90;99.90;;;;;;4972458;28;20603;-70
2022/09/26 00:36:44;;;;;;;6.93;6.40;;;13.90;99.90;;;;;;4971898;28;20486;-66
2022/09/26 00:39:13;;;;;;;6.53;5.67;;;13.90;99.90;;;;;;4972156;28;20486;-66
2022/09/26 00:41:39;;;;;;;6.03;5.30;;;13.80;99.90;;;;;;4971074;28;20264;-66
2022/09/26 00:44:33;;;;;;;6.30;5.80;;;13.90;99.90;;;;;;4971954;28;20454;-66
2022/09/26 00:47:00;;;;;;;6.67;6.07;;;13.80;99.90;;;;;;4971957;28;20448;-66
2022/09/26 00:49:35;;;;;;;6.40;5.80;;;13.70;99.90;;;;;;4971672;28;20457;-66
2022/09/26 00:52:23;;;;;;;6.53;5.93;;;13.70;99.90;;;;;;4971875;28;20448;-66
2022/09/26 00:54:53;;;;;;;6.37;4.87;;;13.70;99.90;;;;;;4974814;28;20442;-66
2022/09/26 00:57:25;;;;;;;5.60;5.20;;;13.70;99.90;;;;;;4971092;28;20447;-66
2022/09/26 01:00:01;;;;;;;5.90;5.40;;;13.70;99.90;;;;;;4972281;28;20438;-66
2022/09/26 01:02:27;;;;;;;8.00;7.20;;;13.70;99.90;;;;;;4984576;28;20442;-66
2022/09/26 01:04:55;;;;;;;7.93;5.47;;;13.70;99.90;;;;;;5032775;28;20502;-66
2022/09/26 01:07:23;;;;;;;5.77;5.37;;;13.60;99.90;;;;;;5031800;28;20447;-66
2022/09/26 01:09:50;;;;;;;6.00;5.50;;;13.60;99.90;;;;;;5033019;28;20457;-66
2022/09/26 01:12:17;;;;;;;5.80;5.20;;;13.60;99.90;;;;;;5032741;28;20414;-75
2022/09/26 01:14:45;;;;;;;6.23;5.70;;;13.60;99.90;;;;;;5033094;28;20446;-66
2022/09/26 01:17:12;;;;;;;6.27;5.70;;;13.60;99.90;;;;;;5033046;28;20403;-66
2022/09/26 01:19:44;;;;;;;6.30;5.73;;;13.60;99.90;;;;;;5032234;28;20426;-66
2022/09/26 01:22:25;;;;;;;6.77;6.17;;;13.60;99.90;;;;;;5033076;28;20409;-66
2022/09/26 01:25:09;;;;;;;5.70;5.30;;;13.60;99.90;;;;;;5032907;28;20774;-66
2022/09/26 01:27:42;;;;;;;6.10;5.60;;;13.60;99.90;;;;;;5032267;28;20408;-66
2022/09/26 01:30:35;;;;;;;6.13;5.70;;;13.60;99.90;;;;;;5032890;28;20550;-66
2022/09/26 01:33:13;;;;;;;5.93;5.53;;;13.60;99.90;;;;;;5032786;28;20773;-66
2022/09/26 01:35:52;;;;;;;6.30;5.70;;;13.60;99.90;;;;;;5031209;28;20450;-66
2022/09/26 01:38:28;;;;;;;5.80;5.20;;;13.50;99.90;;;;;;5021156;28;20498;-67
2022/09/26 01:41:03;;;;;;;6.07;5.67;;;13.60;99.90;;;;;;5032736;28;20478;-66
2022/09/26 01:43:55;;;;;;;5.70;5.23;;;13.60;99.90;;;;;;5032143;28;20412;-66
2022/09/26 01:46:45;;;;;;;5.87;5.37;;;13.60;99.90;;;;;;5031548;28;20447;-66
2022/09/26 01:49:27;;;;;;;6.17;5.57;;;13.60;99.90;;;;;;5031375;28;20474;-66
2022/09/26 01:52:20;;;;;;;5.70;5.30;;;13.70;99.90;;;;;;5031673;28;20455;-66
2022/09/26 01:55:08;;;;;;;5.87;5.37;;;13.70;99.90;;;;;;4981753;28;20843;-66
2022/09/26 01:57:43;;;;;;;6.27;5.30;;;13.70;99.90;;;;;;5031209;28;20432;-66
2022/09/26 02:00:12;;;;;;;7.27;5.73;;;13.70;99.90;;;;;;5036854;28;20498;-66
2022/09/26 02:02:42;;;;;;;5.27;4.87;;;13.70;99.90;;;;;;5018354;28;20696;-66
2022/09/26 02:05:32;;;;;;;5.43;4.60;;;13.80;99.90;;;;;;5036571;28;20997;-66
2022/09/26 02:08:05;;;;;;;5.50;5.10;;;13.80;99.90;;;;;;5036684;28;20496;-66
2022/09/26 02:10:39;;;;;;;5.87;5.37;;;13.80;99.90;;;;;;5035847;28;20444;-65
2022/09/26 02:13:16;;;;;;;5.90;5.40;;;13.90;99.90;;;;;;5036583;28;20460;-66
2022/09/26 02:15:46;;;;;;;5.40;5.00;;;13.90;99.90;;;;;;5035861;28;20525;-66
2022/09/26 02:18:22;;;;;;;6.13;5.53;;;13.90;99.90;;;;;;5036324;28;20427;-66
2022/09/26 02:20:54;;;;;;;6.13;5.50;;;14.00;99.90;;;;;;5036438;28;20437;-66
2022/09/26 02:23:21;;;;;;;6.40;5.77;;;14.10;99.90;;;;;;5034419;28;20962;-70
2022/09/26 02:25:47;;;;;;;6.30;5.23;;;14.20;99.90;;;;;;4984985;28;20558;-66
2022/09/26 02:28:14;;;;;;;6.07;5.47;;;14.20;99.90;;;;;;5036220;28;20423;-66
2022/09/26 02:30:44;;;;;;;5.47;5.07;;;14.30;99.90;;;;;;5035508;28;20764;-66
2022/09/26 02:33:10;;;;;;;7.60;6.90;;;14.30;99.90;;;;;;5036169;28;20418;-66
2022/09/26 02:35:54;;;;;;;6.60;6.10;;;14.40;99.90;;;;;;5035519;28;20422;-66
2022/09/26 02:38:25;;;;;;;6.70;5.57;;;14.40;99.90;;;;;;5036040;28;20401;-66
2022/09/26 02:40:57;;;;;;;7.33;6.13;;;14.40;99.90;;;;;;5018310;28;20811;-66
2022/09/26 02:43:35;;;;;;;6.80;6.20;;;14.50;99.90;;;;;;5034873;28;20912;-67
2022/09/26 02:46:25;;;;;;;6.07;5.47;;;14.50;99.90;;;;;;5035805;28;20896;-66
2022/09/26 02:49:14;;;;;;;6.13;5.37;;;14.50;99.90;;;;;;5035651;28;20443;-66
2022/09/26 02:52:26;;;;;;;6.30;5.70;;;14.50;99.90;;;;;;5033961;28;20443;-66
2022/09/26 02:55:18;;;;;;;5.93;5.17;;;14.50;99.90;;;;;;5017194;28;20508;-66
2022/09/26 02:58:17;;;;;;;7.03;6.33;;;14.60;99.90;;;;;;5035071;28;20486;-66
2022/09/26 03:01:19;;;;;;;6.87;6.37;;;14.60;99.90;;;;;;5016948;28;21000;-66
2022/09/26 03:03:51;;;;;;;8.27;7.00;;;14.60;99.90;;;;;;5034931;28;20412;-66
2022/09/26 03:06:23;;;;;;;7.93;7.17;;;14.60;99.90;;;;;;5035380;28;20475;-66
2022/09/26 03:08:50;;;;;;;7.87;7.13;;;14.60;99.90;;;;;;5035349;28;20448;-66
2022/09/26 03:11:20;;;;;;;10.63;7.80;;;14.60;99.90;;;;;;5035373;28;20424;-66
2022/09/26 03:13:48;;;;;;;9.40;8.50;;;14.60;99.90;;;;;;5034756;28;20416;-66
2022/09/26 03:16:14;;;;;;;10.70;8.60;;;14.60;99.90;;;;;;5035566;28;20424;-66
2022/09/26 03:18:54;;;;;;;9.80;8.90;;;14.60;99.90;;;;;;5034472;28;20891;-66
2022/09/26 03:21:21;;;;;;;9.57;8.67;;;14.60;99.90;;;;;;5034667;28;20433;-66
2022/09/26 03:23:47;;;;;;;9.33;8.40;;;14.60;99.90;;;;;;5034470;28;20794;-66
2022/09/26 03:26:18;;;;;;;10.80;9.27;;;14.70;99.90;;;;;;5034958;28;20539;-66
2022/09/26 03:28:45;;;;;;;9.67;8.87;;;14.70;99.90;;;;;;5034417;28;20511;-66
2022/09/26 03:31:11;;;;;;;10.30;9.30;;;14.70;99.90;;;;;;5035002;28;20428;-66
2022/09/26 03:33:36;;;;;;;11.47;10.17;;;14.70;99.90;;;;;;5034623;28;20496;-66
2022/09/26 03:36:08;;;;;;;10.23;9.33;;;14.70;99.90;;;;;;5034763;28;20529;-66
2022/09/26 03:38:34;;;;;;;10.90;9.80;;;14.70;99.90;;;;;;5034399;28;20504;-66
2022/09/26 03:41:01;;;;;;;9.90;8.87;;;14.70;99.90;;;;;;5034748;28;20417;-66
2022/09/26 03:43:27;;;;;;;11.07;10.10;;;14.60;99.90;;;;;;5034222;28;20422;-66
2022/09/26 03:45:53;;;;;;;9.93;9.07;;;14.60;99.90;;;;;;5034699;28;20434;-66
2022/09/26 03:48:20;;;;;;;11.27;10.23;;;14.60;99.90;;;;;;5033931;28;20440;-65
2022/09/26 03:50:45;;;;;;;10.20;9.17;;;14.60;99.90;;;;;;5033871;28;20427;-67
2022/09/26 03:53:13;;;;;;;11.03;10.00;;;14.60;99.90;;;;;;5034493;28;20433;-66
2022/09/26 03:55:39;;;;;;;10.33;9.30;;;14.60;99.90;;;;;;5034245;28;20178;-65
2022/09/26 03:58:05;;;;;;;10.73;9.53;;;14.60;99.90;;;;;;5034517;28;20868;-66
2022/09/26 04:00:31;;;;;;;8.90;8.20;;;14.60;99.90;;;;;;5033897;28;20181;-66
2022/09/26 04:03:01;;;;;;;12.30;10.90;;;14.60;99.90;;;;;;5034786;28;20638;-66
2022/09/26 04:05:28;;;;;;;11.60;10.50;;;14.50;99.90;;;;;;5026455;28;20301;-67
2022/09/26 04:07:54;;;;;;;11.30;10.40;;;14.50;99.90;;;;;;5012941;28;20560;-65
2022/09/26 04:10:20;;;;;;;10.80;9.90;;;14.50;99.90;;;;;;4995927;28;20817;-66
2022/09/26 04:12:46;;;;;;;13.97;12.70;;;14.50;99.90;;;;;;5013903;28;20761;-65
2022/09/26 04:15:12;;;;;;;11.90;10.87;;;14.50;99.90;;;;;;5014296;28;20440;-65
2022/09/26 04:17:37;;;;;;;12.27;11.30;;;14.50;99.90;;;;;;5011856;28;20313;-66
2022/09/26 04:20:04;;;;;;;10.83;9.83;;;14.60;99.90;;;;;;5025623;28;20197;-65
2022/09/26 04:22:29;;;;;;;9.93;8.93;;;14.40;99.90;;;;;;5032917;28;20170;-66
2022/09/26 04:24:56;;;;;;;12.43;11.23;;;14.40;99.90;;;;;;5033131;28;20900;-66
2022/09/26 04:27:25;;;;;;;13.93;11.50;;;14.30;99.90;;;;;;5033633;28;20265;-66
2022/09/26 04:29:51;;;;;;;13.73;11.60;;;14.30;99.90;;;;;;5015649;28;20479;-66
2022/09/26 04:32:18;;;;;;;12.90;11.63;;;14.20;99.90;;;;;;5014016;28;20429;-66
2022/09/26 04:34:44;;;;;;;13.83;12.33;;;14.20;99.90;;;;;;5013243;28;20565;-65
2022/09/26 04:37:10;;;;;;;13.47;12.17;;;14.20;99.90;;;;;;5013610;28;20451;-65
2022/09/26 04:39:36;;;;;;;13.90;12.53;;;14.10;99.90;;;;;;4952665;29;20212;-66
2022/09/26 04:42:03;;;;;;;14.23;12.83;;;14.10;99.90;;;;;;4952688;29;20436;-65
2022/09/26 04:44:29;;;;;;;13.73;10.90;;;14.10;99.90;;;;;;4951799;29;20192;-72
2022/09/26 04:46:57;;;;;;;12.40;11.10;;;14.00;99.90;;;;;;4951346;29;20446;-66
2022/09/26 04:49:23;;;;;;;12.47;9.80;;;14.00;99.90;;;;;;4965609;28;20485;-66
2022/09/26 04:51:48;;;;;;;11.20;9.70;;;14.00;99.90;;;;;;4970691;28;20229;-67
2022/09/26 04:54:15;;;;;;;11.50;9.93;;;14.00;99.90;;;;;;4953084;28;20208;-66
2022/09/26 04:56:40;;;;;;;12.83;10.80;;;14.10;99.90;;;;;;4952240;29;20246;-67
2022/09/26 04:59:06;;;;;;;10.40;9.30;;;14.10;99.90;;;;;;4950867;29;20440;-67
2022/09/26 05:01:32;;;;;;;11.90;9.73;;;14.20;99.90;;;;;;4952393;29;20176;-66
2022/09/26 05:03:58;;;;;;;11.60;10.50;;;14.20;99.90;;;;;;4953155;29;20647;-66
2022/09/26 05:06:24;;;;;;;11.43;10.33;;;14.20;99.90;;;;;;4951252;29;20219;-66
2022/09/26 05:08:50;;;;;;;11.90;10.70;;;14.20;99.90;;;;;;4952225;29;20655;-66
2022/09/26 05:11:17;;;;;;;11.33;10.27;;;14.20;99.90;;;;;;4997794;28;20428;-66
2022/09/26 05:13:43;;;;;;;10.03;8.50;;;14.20;99.90;;;;;;5006986;28;20186;-66
2022/09/26 05:16:10;;;;;;;11.20;10.07;;;14.30;99.90;;;;;;5013277;28;20422;-66
2022/09/26 05:18:38;;;;;;;10.80;9.80;;;14.20;99.90;;;;;;5012726;28;20453;-66
2022/09/26 05:21:05;;;;;;;10.40;9.37;;;14.20;99.90;;;;;;5013314;28;20516;-66
2022/09/26 05:26:21;;;;;;;11.00;8.90;;;13.90;99.90;;;;;;5013341;28;20405;-66
2022/09/26 05:28:54;;;;;;;11.27;8.50;;;13.90;99.90;;;;;;5012443;28;20544;-66
2022/09/26 05:31:22;;;;;;;10.00;9.10;;;14.00;99.90;;;;;;5013299;28;20399;-66
2022/09/26 05:33:49;;;;;;;11.60;9.40;;;14.00;99.90;;;;;;4993815;28;20765;-66
2022/09/26 05:36:15;;;;;;;10.83;9.73;;;14.10;99.90;;;;;;5013187;28;20435;-66
2022/09/26 05:38:41;;;;;;;10.37;9.40;;;14.10;99.90;;;;;;4999849;28;20974;-66
2022/09/26 05:41:07;;;;;;;9.30;8.50;;;14.20;99.90;;;;;;5012947;28;20422;-66
2022/09/26 05:43:33;;;;;;;9.30;8.47;;;14.20;99.90;;;;;;5012169;28;20186;-68
2022/09/26 05:46:05;;;;;;;10.70;8.63;;;14.00;99.90;;;;;;5012799;28;20189;-66
2022/09/26 05:48:32;;;;;;;11.10;10.00;;;14.00;99.90;;;;;;5012807;28;20444;-66
2022/09/26 05:51:05;;;;;;;10.70;9.47;;;14.10;99.90;;;;;;5009425;28;20445;-66
2022/09/26 05:53:32;;;;;;;9.93;9.13;;;14.10;99.90;;;;;;5012300;28;20463;-66
2022/09/26 05:55:58;;;;;;;11.30;10.30;;;14.10;99.90;;;;;;5011706;28;20406;-66
2022/09/26 05:58:31;;;;;;;11.43;10.10;;;14.00;99.90;;;;;;5012758;28;20422;-66
2022/09/26 06:01:08;;;;;;;13.33;7.90;;;14.00;99.90;;;;;;5011349;28;20893;-67
2022/09/26 06:03:35;;;;;;;10.93;8.70;;;14.10;99.90;;;;;;5007081;28;20469;-67
2022/09/26 06:06:12;;;;;;;10.97;8.87;;;14.00;99.90;;;;;;4999738;28;20527;-71
2022/09/26 06:08:39;;;;;;;11.83;10.30;;;14.00;99.90;;;;;;5010795;28;20552;-66
2022/09/26 06:11:11;;;;;;;8.93;7.93;;;13.90;99.90;;;;;;5009979;28;20440;-66
2022/09/26 06:13:38;;;;;;;13.23;8.73;;;13.90;99.90;;;;;;5011328;28;20433;-66
2022/09/26 06:16:06;;;;;;;13.63;10.30;;;13.90;99.90;;;;;;5009949;28;20431;-66
2022/09/26 06:18:36;;;;;;;11.83;8.40;;;13.90;99.90;;;;;;5005295;28;20487;-68
2022/09/26 06:21:02;;;;;;;10.17;8.60;;;14.00;99.90;;;;;;5010997;28;20466;-67
2022/09/26 06:23:29;;;;;;;9.10;8.20;;;14.10;99.90;;;;;;5012508;28;20406;-66
2022/09/26 06:25:55;;;;;;;9.70;8.80;;;14.30;99.90;;;;;;5011775;28;20440;-68
2022/09/26 06:28:21;;;;;;;8.53;7.83;;;14.60;99.90;;;;;;5012443;28;20418;-68
2022/09/26 06:30:46;;;;;;;11.07;7.53;;;14.70;99.90;;;;;;5011542;28;20283;-68
2022/09/26 06:33:12;;;;;;;8.77;7.87;;;15.10;99.90;;;;;;5002312;28;20199;-65
2022/09/26 06:35:38;;;;;;;8.23;7.53;;;15.30;99.90;;;;;;5002686;28;20189;-64
2022/09/26 06:38:05;;;;;;;6.70;6.10;;;15.30;99.90;;;;;;5000794;28;20188;-64
2022/09/26 06:40:32;;;;;;;7.93;7.10;;;15.30;99.90;;;;;;4923715;29;20433;-64
2022/09/26 06:42:58;;;;;;;7.80;6.87;;;15.10;99.90;;;;;;4923339;29;20959;-66
2022/09/26 06:45:25;;;;;;;7.73;7.13;;;14.80;99.90;;;;;;4923758;29;20848;-64
2022/09/26 06:47:51;;;;;;;7.63;7.03;;;14.60;99.90;;;;;;4916597;29;20433;-64
2022/09/26 06:50:17;;;;;;;8.70;7.90;;;14.60;99.90;;;;;;4917500;29;20557;-64
2022/09/26 06:52:43;;;;;;;8.73;7.90;;;14.60;99.90;;;;;;4935414;29;20576;-64
2022/09/26 06:55:09;;;;;;;7.20;6.53;;;14.50;99.90;;;;;;4935294;29;20429;-64
2022/09/26 06:57:39;;;;;;;8.20;7.40;;;14.50;99.90;;;;;;4932908;29;20201;-64
2022/09/26 07:00:08;;;;;;;7.37;6.63;;;14.50;99.90;;;;;;4935787;29;20817;-64
2022/09/26 07:02:34;;;;;;;7.00;6.30;;;14.50;99.90;;;;;;4935987;29;20614;-64
2022/09/26 07:05:01;;;;;;;9.93;8.20;;;14.50;99.90;;;;;;4940091;29;20468;-64
2022/09/26 07:07:27;;;;;;;7.70;6.40;;;13.90;99.90;;;;;;4954913;29;20462;-64
2022/09/26 07:09:55;;;;;;;9.27;8.67;;;14.00;99.90;;;;;;4954302;29;20459;-64
2022/09/26 07:12:21;;;;;;;6.50;5.90;;;14.20;99.90;;;;;;5006607;28;20789;-64
2022/09/26 07:14:46;;;;;;;167.77;109.87;;;14.30;99.90;;;;;;5014774;28;20456;-65
2022/09/26 07:17:15;;;;;;;20.73;16.13;;;14.30;99.90;;;;;;4995893;28;20509;-64
2022/09/26 07:19:41;;;;;;;6.87;6.17;;;14.30;99.90;;;;;;5010175;28;20187;-71
2022/09/26 07:22:07;;;;;;;5.50;5.10;;;14.30;99.90;;;;;;5013836;28;20453;-64
2022/09/26 07:24:33;;;;;;;5.43;5.00;;;14.20;99.90;;;;;;5012125;28;20458;-64
2022/09/26 07:27:02;;;;;;;4.93;4.40;;;14.20;99.90;;;;;;4996007;28;20186;-64
2022/09/26 07:29:28;;;;;;;5.93;5.43;;;14.20;99.90;;;;;;5014188;28;20511;-65
2022/09/26 07:31:54;;;;;;;4.77;4.37;;;14.00;99.90;;;;;;5013573;28;20840;-66
2022/09/26 07:34:23;;;;;;;6.80;6.40;;;14.10;99.90;;;;;;5013027;28;20194;-65
2022/09/26 07:36:50;;;;;;;4.13;3.83;;;14.20;99.90;;;;;;4995362;28;20225;-69
2022/09/26 07:39:17;;;;;;;6.83;6.43;;;14.30;99.90;;;;;;5014268;28;20443;-65
2022/09/26 07:41:43;;;;;;;3.90;3.57;;;14.20;99.90;;;;;;5014077;28;20418;-65
2022/09/26 07:44:09;;;;;;;4.73;4.23;;;14.30;99.90;;;;;;5015054;28;20418;-65
2022/09/26 07:52:04;;;;;;;5.53;5.07;;;14.50;99.90;;;;;;5014187;28;20414;-65
2022/09/26 07:54:30;;;;;;;5.10;4.40;;;14.60;99.90;;;;;;5014722;28;20555;-65
2022/09/26 07:56:55;;;;;;;3.93;3.57;;;14.60;99.90;;;;;;4995514;28;20181;-65
2022/09/26 07:59:24;;;;;;;4.10;3.80;;;14.60;99.90;;;;;;5014718;28;20425;-65
2022/09/26 08:01:53;;;;;;;4.10;3.80;;;14.50;99.90;;;;;;5014051;28;20174;-65
2022/09/26 08:04:19;;;;;;;8.07;4.10;;;14.50;99.90;;;;;;5013127;28;20440;-65
2022/09/26 08:06:44;;;;;;;3.53;3.27;;;14.60;99.90;;;;;;5021830;28;20465;-65
2022/09/26 08:09:10;;;;;;;6.80;6.40;;;14.70;99.90;;;;;;5034139;28;20216;-65
2022/09/26 08:11:37;;;;;;;5.07;4.17;;;14.60;99.60;;;;;;5034226;28;20237;-65
2022/09/26 08:14:02;;;;;;;4.70;3.73;;;14.70;99.70;;;;;;5033511;28;20525;-65
2022/09/26 08:16:28;;;;;;;4.43;4.03;;;14.70;99.50;;;;;;5034182;28;20470;-65
2022/09/26 08:18:54;;;;;;;4.77;4.40;;;14.70;99.70;;;;;;5033600;28;20183;-65
2022/09/26 08:21:21;;;;;;;5.30;4.80;;;14.70;99.70;;;;;;5033823;28;20247;-65
2022/09/26 08:23:47;;;;;;;5.03;3.70;;;14.70;99.90;;;;;;5033180;28;20501;-65
2022/09/26 08:26:20;;;;;;;4.30;4.00;;;14.70;99.90;;;;;;5033416;28;20941;-65
2022/09/26 08:28:45;;;;;;;4.93;4.07;;;14.60;99.90;;;;;;5033371;28;20293;-65
2022/09/26 08:31:12;;;;;;;4.90;4.40;;;14.60;99.90;;;;;;5033883;28;20959;-65
2022/09/26 08:33:37;;;;;;;7.90;7.40;;;14.60;99.90;;;;;;5016173;28;20270;-65
2022/09/26 08:36:05;;;;;;;4.47;4.07;;;14.60;99.90;;;;;;5031756;28;20532;-65
2022/09/26 08:38:32;;;;;;;6.20;5.80;;;14.50;99.90;;;;;;5033425;28;20269;-65
2022/09/26 08:41:21;;;;;;;4.80;3.60;;;14.50;99.90;;;;;;5033164;28;20512;-65
2022/09/26 08:44:21;;;;;;;6.80;6.30;;;14.60;99.90;;;;;;5015499;28;20471;-65
2022/09/26 08:47:16;;;;;;;5.20;4.80;;;14.30;99.90;;;;;;5033002;28;20474;-66
2022/09/26 08:50:16;;;;;;;5.00;4.70;;;14.20;99.90;;;;;;5032309;28;20460;-65
2022/09/26 08:52:45;;;;;;;5.37;4.97;;;14.30;99.90;;;;;;5025263;28;20765;-65
2022/09/26 08:55:29;;;;;;;5.00;3.63;;;14.30;99.90;;;;;;5033439;28;20762;-65
2022/09/26 08:58:00;;;;;;;4.40;4.03;;;14.30;99.90;;;;;;5029313;28;20557;-65
2022/09/26 09:00:30;;;;;;;4.70;4.40;;;14.20;99.90;;;;;;5031713;28;20444;-65
2022/09/26 09:03:04;;;;;;;4.00;3.70;;;14.20;99.90;;;;;;5032640;28;20428;-65
2022/09/26 09:05:37;;;;;;;5.40;5.10;;;14.30;99.90;;;;;;4961818;28;20474;-65
2022/09/26 09:08:09;;;;;;;4.47;4.07;;;14.30;99.90;;;;;;4971673;28;21107;-65
2022/09/26 09:10:40;;;;;;;4.60;4.10;;;14.30;99.90;;;;;;4972088;28;20518;-65
2022/09/26 09:13:09;;;;;;;4.10;3.80;;;14.30;99.90;;;;;;4970675;28;20415;-65
2022/09/26 09:15:58;;;;;;;4.50;4.13;;;14.30;99.90;;;;;;4967540;28;20620;-66
2022/09/26 09:18:36;;;;;;;3.73;3.43;;;14.30;99.90;;;;;;4972028;28;20453;-65
2022/09/26 09:21:40;;;;;;;5.13;3.57;;;14.30;99.90;;;;;;4971483;28;20434;-65
2022/09/26 09:24:50;;;;;;;3.50;3.20;;;14.30;99.90;;;;;;4953898;28;20528;-65
2022/09/26 09:27:21;;;;;;;3.30;3.10;;;14.20;99.90;;;;;;4936892;28;20440;-65
2022/09/26 09:30:07;;;;;;;5.10;3.70;;;14.10;99.90;;;;;;4955014;28;20910;-65
2022/09/26 09:32:57;;;;;;;5.23;4.83;;;14.10;99.90;;;;;;4954107;28;20846;-70
2022/09/26 09:36:13;;;;;;;4.23;3.43;;;14.10;99.90;;;;;;4946259;28;20803;-65
2022/09/26 09:38:43;;;;;;;4.83;4.60;;;14.20;99.90;;;;;;5008107;28;20503;-65
2022/09/26 09:41:24;;;;;;;4.93;4.53;;;14.20;99.90;;;;;;5012327;28;20430;-65
2022/09/26 09:43:57;;;;;;;4.67;4.27;;;14.20;99.90;;;;;;5027295;28;21043;-70
2022/09/26 09:46:30;;;;;;;3.90;3.70;;;14.20;99.90;;;;;;5013656;28;20421;-64
2022/09/26 09:49:21;;;;;;;3.47;3.17;;;14.30;99.90;;;;;;5025597;28;20630;-64
2022/09/26 09:52:20;;;;;;;4.10;3.70;;;14.20;99.90;;;;;;5028647;28;20993;-74
2022/09/26 09:55:13;;;;;;;4.00;3.70;;;14.20;99.90;;;;;;4963921;28;20548;-64
2022/09/26 09:58:06;;;;;;;7.20;6.70;;;14.20;99.90;;;;;;5024985;28;20467;-63
2022/09/26 10:00:40;;;;;;;5.20;4.90;;;14.10;99.90;;;;;;5022254;28;20425;-64
2022/09/26 10:03:19;;;;;;;4.60;3.33;;;14.20;99.90;;;;;;5022693;28;20432;-64
2022/09/26 10:05:47;;;;;;;5.37;5.17;;;14.20;99.90;;;;;;5012719;28;20985;-64
2022/09/26 10:08:39;;;;;;;3.10;2.90;;;14.40;99.90;;;;;;5004068;28;20933;-71
2022/09/26 10:11:08;;;;;;;6.50;6.10;;;14.20;99.90;;;;;;5007588;28;20914;-63
2022/09/26 10:13:35;;;;;;;4.37;4.17;;;14.20;99.90;;;;;;4995058;28;20431;-64
2022/09/26 10:16:04;;;;;;;3.83;3.63;;;14.20;99.90;;;;;;5012257;28;20519;-64
2022/09/26 10:18:30;;;;;;;4.43;4.13;;;14.20;99.90;;;;;;5012624;28;20927;-64
2022/09/26 10:21:09;;;;;;;4.93;4.63;;;14.20;99.90;;;;;;5015879;28;20414;-64
2022/09/26 10:23:40;;;;;;;6.77;6.47;;;14.20;99.90;;;;;;5016536;28;20201;-64
2022/09/26 10:26:08;;;;;;;4.90;4.60;;;14.20;99.90;;;;;;4980365;28;20925;-64
2022/09/26 10:28:55;;;;;;;4.07;3.77;;;14.20;99.90;;;;;;4996776;28;20414;-64
2022/09/26 10:31:29;;;;;;;5.70;5.37;;;14.10;99.90;;;;;;4998746;28;20416;-64
2022/09/26 10:33:58;;;;;;;356.53;247.13;;;14.20;99.90;;;;;;5004742;28;20476;-63
2022/09/26 10:36:35;;;;;;;162.20;105.50;;;14.20;99.90;;;;;;4996741;28;20775;-64
2022/09/26 10:42:00;;;;;;;3.60;3.30;;;14.10;99.90;;;;;;5015683;28;20873;-64
2022/09/26 10:44:35;;;;;;;3.20;2.83;;;14.10;99.90;;;;;;4998117;28;20417;-64
2022/09/26 10:47:07;;;;;;;2.80;2.60;;;14.20;99.90;;;;;;5015291;28;20813;-64
2022/09/26 10:50:02;;;;;;;4.63;2.77;;;13.70;99.90;;;;;;5015604;28;20534;-64
2022/09/26 10:52:38;;;;;;;2.90;2.70;;;13.80;99.90;;;;;;5006785;28;20788;-64
2022/09/26 10:55:19;;;;;;;3.60;3.30;;;13.90;99.90;;;;;;5014656;28;20445;-64
2022/09/26 10:57:48;;;;;;;3.10;2.90;;;13.80;99.90;;;;;;5015609;28;20421;-64
2022/09/26 11:00:18;;;;;;;3.00;2.90;;;13.90;99.90;;;;;;5014646;28;20416;-64
2022/09/26 11:02:46;;;;;;;3.40;2.60;;;14.00;99.90;;;;;;5015355;28;20547;-64
2022/09/26 11:08:05;;;;;;;3.20;2.90;;;14.00;99.90;;;;;;5034312;28;20429;-64
2022/09/26 11:10:32;;;;;;;5.90;3.67;;;13.50;99.90;;;;;;5016628;28;21031;-64
2022/09/26 11:13:03;;;;;;;3.60;3.30;;;13.50;99.90;;;;;;5034577;28;20500;-64
2022/09/26 11:15:29;;;;;;;2.90;2.77;;;13.60;99.90;;;;;;5035417;28;20411;-64
2022/09/26 11:17:55;;;;;;;3.23;3.03;;;13.80;99.90;;;;;;5034415;28;20414;-64
2022/09/26 11:20:49;;;;;;;3.40;3.10;;;13.80;99.90;;;;;;5017303;28;20777;-64
2022/09/26 11:23:29;;;;;;;4.43;3.83;;;13.90;99.90;;;;;;5034434;28;20493;-64
2022/09/26 11:26:27;;;;;;;4.17;3.90;;;14.00;99.90;;;;;;5034335;28;20542;-64
2022/09/26 11:29:15;;;;;;;3.30;3.10;;;14.00;99.90;;;;;;5034474;28;20480;-66
2022/09/26 11:31:42;;;;;;;4.83;2.80;;;14.10;99.90;;;;;;5032957;28;20486;-64
2022/09/26 11:34:15;;;;;;;3.90;3.70;;;14.00;99.90;;;;;;5033045;28;20512;-64
2022/09/26 11:36:54;;;;;;;4.10;3.90;;;14.00;99.90;;;;;;5015517;28;20774;-64
2022/09/26 11:40:00;;;;;;;3.40;3.20;;;14.00;99.90;;;;;;5034797;28;20507;-64
2022/09/26 11:42:53;;;;;;;3.47;3.27;;;14.10;99.90;;;;;;5034248;28;20415;-64
2022/09/26 11:45:51;;;;;;;3.97;3.67;;;14.10;99.90;;;;;;5033762;28;20424;-65
2022/09/26 11:48:25;;;;;;;6.03;3.43;;;14.10;99.90;;;;;;5034006;28;20409;-64
2022/09/26 11:51:04;;;;;;;3.20;3.00;;;14.20;99.90;;;;;;5034637;28;20451;-65
2022/09/26 11:53:39;;;;;;;3.47;2.90;;;14.20;99.90;;;;;;5034376;28;20920;-64
2022/09/26 11:56:25;;;;;;;6.33;5.93;;;14.10;99.90;;;;;;5033585;28;20873;-64
2022/09/26 11:58:58;;;;;;;3.53;3.33;;;14.10;99.90;;;;;;5034070;28;20901;-66
2022/09/26 12:01:53;;;;;;;3.40;3.20;;;14.20;99.90;;;;;;5034312;28;20413;-64
2022/09/26 12:04:48;;;;;;;3.60;3.40;;;14.20;99.90;;;;;;5015496;28;20440;-64
2022/09/26 12:07:31;;;;;;;3.40;3.27;;;14.20;99.90;;;;;;5033826;28;20790;-64
2022/09/26 12:10:34;;;;;;;3.50;3.20;;;14.30;99.90;;;;;;5033464;28;20455;-65
2022/09/26 12:13:21;;;;;;;3.00;2.80;;;14.40;99.90;;;;;;5033929;28;20409;-65
2022/09/26 12:15:58;;;;;;;5.20;4.37;;;14.40;99.90;;;;;;5034172;28;20409;-64
2022/09/26 12:18:28;;;;;;;3.60;3.40;;;14.50;99.90;;;;;;5034265;28;20396;-66
2022/09/26 12:20:56;;;;;;;3.40;3.20;;;14.40;99.90;;;;;;5033953;28;20761;-66
2022/09/26 12:23:40;;;;;;;4.03;3.67;;;14.30;99.90;;;;;;5033953;28;20467;-64
2022/09/26 12:26:24;;;;;;;3.40;3.20;;;14.40;99.90;;;;;;5033580;28;20429;-65
2022/09/26 12:29:26;;;;;;;3.07;2.87;;;14.40;99.90;;;;;;5034079;28;20499;-65
2022/09/26 12:31:59;;;;;;;2.87;2.67;;;14.60;99.90;;;;;;5011049;28;20425;-66
2022/09/26 12:35:06;;;;;;;4.40;2.80;;;14.60;99.90;;;;;;5033166;28;20433;-66
2022/09/26 12:37:57;;;;;;;3.20;3.10;;;14.60;99.90;;;;;;4999650;28;20436;-65
2022/09/26 12:40:51;;;;;;;3.20;3.00;;;14.60;99.90;;;;;;5033740;28;20800;-66
2022/09/26 12:43:34;;;;;;;3.43;3.10;;;14.50;99.90;;;;;;5032378;28;20883;-66
2022/09/26 12:46:08;;;;;;;3.57;3.27;;;14.60;99.90;;;;;;5033135;28;20459;-67
2022/09/26 12:48:55;;;;;;;3.63;2.77;;;14.60;99.90;;;;;;5015766;28;20753;-66
2022/09/26 12:51:34;;;;;;;4.50;2.93;;;14.50;99.90;;;;;;5015343;28;20779;-66
2022/09/26 12:54:37;;;;;;;2.97;2.77;;;14.50;99.90;;;;;;5033114;28;20472;-65
2022/09/26 12:57:31;;;;;;;3.30;3.20;;;14.60;99.90;;;;;;5032630;28;20415;-64
2022/09/26 13:00:10;;;;;;;3.80;3.10;;;14.70;99.90;;;;;;5033373;28;20409;-75
2022/09/26 13:03:13;;;;;;;3.23;3.03;;;14.70;99.90;;;;;;5032808;28;20435;-68
2022/09/26 13:06:01;;;;;;;3.20;2.83;;;14.70;99.90;;;;;;5033180;28;20462;-65
2022/09/26 13:08:57;;;;;;;33.10;22.87;;;14.50;99.90;;;;;;5030701;28;20535;-65
2022/09/26 13:11:57;;;;;;;13.33;9.17;;;14.60;99.90;;;;;;5021176;28;20406;-66
2022/09/26 13:15:02;;;;;;;4.33;3.93;;;14.60;99.90;;;;;;4953221;28;20855;-66
2022/09/26 13:17:43;;;;;;;3.33;3.00;;;14.70;99.90;;;;;;5021194;28;20410;-65
2022/09/26 13:20:39;;;;;;;3.50;3.40;;;14.70;99.90;;;;;;5022958;28;20499;-65
2022/09/26 13:23:26;;;;;;;4.10;3.80;;;14.70;99.90;;;;;;5020625;28;20467;-65
2022/09/26 13:25:54;;;;;;;3.47;3.27;;;14.60;99.90;;;;;;5022115;28;20398;-65
2022/09/26 13:28:55;;;;;;;3.80;3.60;;;14.50;99.90;;;;;;5023358;28;20487;-65
2022/09/26 13:31:28;;;;;;;4.00;3.80;;;14.50;99.90;;;;;;4992804;28;20455;-65
2022/09/26 13:34:07;;;;;;;3.60;3.23;;;14.50;99.90;;;;;;5025247;28;20505;-65